createdAt,value
2018-05-25T00:01:59.176Z,17.97
2018-05-25T00:04:26.695Z,19.03
2018-05-25T00:06:54.231Z,19.03
2018-05-25T00:09:21.759Z,18.57
2018-05-25T00:11:50.078Z,19.47
2018-05-25T00:14:17.595Z,18.40
2018-05-25T00:16:45.898Z,20.03
2018-05-25T00:19:13.414Z,19.73
2018-05-25T00:21:40.947Z,19.73
2018-05-25T00:24:08.463Z,19.83
2018-05-25T00:26:36.004Z,18.57
2018-05-25T00:29:04.282Z,19.60
2018-05-25T00:31:32.585Z,18.70
2018-05-25T00:34:00.098Z,19.60
2018-05-25T00:36:28.403Z,19.70
2018-05-25T00:38:55.915Z,19.47
2018-05-25T00:41:23.454Z,19.40
2018-05-25T00:43:50.971Z,20.03
2018-05-25T00:46:18.511Z,19.77
2018-05-25T00:48:46.794Z,20.80
2018-05-25T00:51:14.346Z,19.63
2018-05-25T00:53:41.858Z,18.53
2018-05-25T00:56:09.394Z,19.13
2018-05-25T00:58:36.907Z,19.30
2018-05-25T01:01:05.212Z,18.93
2018-05-25T01:03:32.750Z,21.07
2018-05-25T01:06:00.279Z,19.87
2018-05-25T01:08:28.567Z,19.40
2018-05-25T01:10:56.871Z,21.50
2018-05-25T01:13:24.382Z,20.73
2018-05-25T01:15:52.686Z,19.63
2018-05-25T01:18:20.207Z,20.17
2018-05-25T01:20:47.754Z,20.17
2018-05-25T01:23:15.270Z,20.30
2018-05-25T01:25:42.794Z,19.97
2018-05-25T01:28:11.099Z,20.67
2018-05-25T01:30:38.618Z,21.00
2018-05-25T01:33:06.919Z,22.83
2018-05-25T01:35:34.437Z,20.93
2018-05-25T01:38:01.984Z,21.20
2018-05-25T01:40:29.510Z,19.77
2018-05-25T01:42:57.047Z,20.70
2018-05-25T01:45:24.561Z,20.47
2018-05-25T01:47:52.094Z,21.33
2018-05-25T01:50:19.605Z,20.20
2018-05-25T01:52:47.146Z,19.70
2018-05-25T01:55:15.422Z,20.07
2018-05-25T01:57:43.731Z,19.77
2018-05-25T02:00:11.246Z,19.20
2018-05-25T02:02:39.546Z,20.27
2018-05-25T02:05:07.057Z,21.23
2018-05-25T02:07:34.594Z,18.80
2018-05-25T02:10:02.106Z,19.77
2018-05-25T02:12:29.650Z,20.97
2018-05-25T02:14:57.929Z,19.70
2018-05-25T02:17:25.473Z,19.53
2018-05-25T02:19:53.758Z,19.17
2018-05-25T02:22:22.068Z,20.03
2018-05-25T02:24:49.587Z,19.47
2018-05-25T02:27:17.981Z,17.87
2018-05-25T02:29:45.494Z,17.70
2018-05-25T02:32:13.030Z,17.93
2018-05-25T02:34:40.542Z,18.57
2018-05-25T02:37:08.079Z,18.27
2018-05-25T02:39:35.592Z,20.10
2018-05-25T02:42:03.123Z,18.63
2018-05-25T02:44:30.691Z,19.33
2018-05-25T02:46:58.230Z,19.13
2018-05-25T02:49:25.771Z,19.57
2018-05-25T02:51:54.068Z,18.50
2018-05-25T02:54:21.590Z,19.60
2018-05-25T02:56:49.894Z,17.67
2018-05-25T02:59:17.409Z,18.63
2018-05-25T03:01:44.942Z,18.87
2018-05-25T03:04:12.459Z,18.47
2018-05-25T03:06:40.002Z,17.73
2018-05-25T03:09:07.523Z,19.07
2018-05-25T03:11:35.059Z,17.50
2018-05-25T03:14:02.574Z,18.00
2018-05-25T03:16:30.110Z,18.37
2018-05-25T03:18:58.391Z,18.77
2018-05-25T03:21:26.696Z,18.10
2018-05-25T03:23:54.210Z,18.70
2018-05-25T03:26:22.514Z,18.70
2018-05-25T03:28:50.059Z,18.10
2018-05-25T03:31:17.602Z,17.70
2018-05-25T03:33:45.886Z,18.63
2018-05-25T03:36:14.171Z,20.73
2018-05-25T03:38:41.718Z,19.07
2018-05-25T03:41:09.235Z,16.80
2018-05-25T03:43:36.858Z,17.83
2018-05-25T03:46:04.378Z,18.17
2018-05-25T03:48:33.119Z,18.40
2018-05-25T03:51:00.639Z,18.00
2018-05-25T03:53:28.178Z,18.10
2018-05-25T03:55:56.453Z,16.60
2018-05-25T03:58:36.496Z,17.53
2018-05-25T04:01:16.508Z,16.70
2018-05-25T04:03:44.891Z,18.83
2018-05-25T04:06:13.271Z,18.40
2018-05-25T04:08:40.805Z,17.47
2018-05-25T04:11:08.323Z,17.27
2018-05-25T04:13:35.866Z,17.73
2018-05-25T04:16:04.151Z,17.17
2018-05-25T04:18:32.458Z,15.87
2018-05-25T04:20:59.970Z,17.53
2018-05-25T04:23:28.274Z,17.80
2018-05-25T04:25:55.786Z,19.03
2018-05-25T04:28:23.367Z,22.93
2018-05-25T04:30:51.651Z,18.83
2018-05-25T04:33:19.185Z,17.23
2018-05-25T04:35:47.466Z,18.03
2018-05-25T04:38:15.774Z,18.07
2018-05-25T04:40:43.300Z,16.90
2018-05-25T04:43:11.657Z,16.40
2018-05-25T04:45:39.919Z,17.27
2018-05-25T04:48:07.454Z,17.87
2018-05-25T04:50:34.967Z,17.70
2018-05-25T04:53:02.504Z,17.20
2018-05-25T04:55:30.788Z,17.30
2018-05-25T04:57:59.198Z,17.40
2018-05-25T05:00:26.716Z,17.10
2018-05-25T05:02:55.023Z,17.13
2018-05-25T05:05:22.539Z,16.10
2018-05-25T05:07:50.847Z,15.60
2018-05-25T05:10:18.369Z,15.87
2018-05-25T05:12:46.670Z,17.03
2018-05-25T05:15:14.190Z,15.83
2018-05-25T05:17:41.725Z,14.77
2018-05-25T05:20:09.239Z,15.93
2018-05-25T05:22:36.776Z,16.53
2018-05-25T05:25:05.054Z,17.73
2018-05-25T05:27:33.362Z,16.10
2018-05-25T05:30:00.882Z,16.67
2018-05-25T05:32:28.447Z,16.00
2018-05-25T05:34:55.964Z,15.60
2018-05-25T05:37:23.497Z,16.60
2018-05-25T05:39:51.023Z,15.70
2018-05-25T05:42:18.564Z,15.77
2018-05-25T05:44:46.893Z,15.87
2018-05-25T05:47:14.532Z,16.80
2018-05-25T05:49:42.047Z,15.80
2018-05-25T05:52:11.138Z,14.77
2018-05-25T05:54:39.427Z,16.47
2018-05-25T05:57:07.730Z,16.27
2018-05-25T05:59:35.341Z,16.30
2018-05-25T06:02:02.975Z,16.90
2018-05-25T06:04:31.391Z,16.87
2018-05-25T06:06:59.675Z,16.13
2018-05-25T06:09:27.219Z,15.63
2018-05-25T06:11:55.542Z,17.27
2018-05-25T06:14:23.079Z,15.83
2018-05-25T06:16:50.591Z,16.17
2018-05-25T06:19:18.919Z,17.67
2018-05-25T06:21:46.445Z,15.90
2018-05-25T06:24:14.750Z,17.53
2018-05-25T06:26:42.266Z,17.07
2018-05-25T06:29:10.572Z,17.00
2018-05-25T06:31:38.087Z,16.20
2018-05-25T06:34:06.400Z,16.43
2018-05-25T06:36:33.913Z,16.40
2018-05-25T06:39:01.608Z,15.77
2018-05-25T06:41:29.335Z,17.47
2018-05-25T06:43:57.675Z,16.73
2018-05-25T06:46:25.211Z,16.70
2018-05-25T06:48:52.758Z,16.30
2018-05-25T06:51:20.382Z,16.33
2018-05-25T06:53:47.918Z,17.07
2018-05-25T06:56:15.450Z,17.00
2018-05-25T06:58:42.986Z,17.00
2018-05-25T07:01:10.500Z,18.30
2018-05-25T07:03:38.082Z,17.03
2018-05-25T07:06:06.359Z,15.77
2018-05-25T07:08:34.664Z,17.00
2018-05-25T07:11:02.177Z,17.73
2018-05-25T07:13:30.482Z,16.50
2018-05-25T07:15:58.063Z,16.87
2018-05-25T07:18:25.598Z,16.90
2018-05-25T07:20:53.114Z,17.43
2018-05-25T07:23:20.659Z,15.53
2018-05-25T07:25:48.169Z,17.10
2018-05-25T07:28:15.712Z,17.50
2018-05-25T07:30:43.226Z,16.57
2018-05-25T07:33:10.787Z,15.00
2018-05-25T07:35:38.303Z,17.27
2018-05-25T07:38:05.841Z,15.17
2018-05-25T07:40:33.362Z,18.23
2018-05-25T07:43:01.670Z,17.60
2018-05-25T07:45:29.181Z,16.10
2018-05-25T07:47:56.720Z,17.70
2018-05-25T07:50:24.247Z,17.27
2018-05-25T07:52:51.840Z,16.37
2018-05-25T07:55:19.360Z,16.67
2018-05-25T07:57:46.898Z,16.27
2018-05-25T08:00:14.465Z,15.80
2018-05-25T08:02:42.752Z,16.53
2018-05-25T08:05:10.270Z,16.83
2018-05-25T08:07:38.571Z,15.50
2018-05-25T08:10:06.086Z,17.20
2018-05-25T08:12:33.623Z,17.90
2018-05-25T08:15:01.158Z,17.10
2018-05-25T08:17:28.670Z,17.33
2018-05-25T08:19:56.976Z,17.53
2018-05-25T08:22:24.486Z,18.17
2018-05-25T08:24:52.019Z,18.30
2018-05-25T08:27:19.530Z,16.07
2018-05-25T08:29:47.088Z,18.50
2018-05-25T08:32:14.602Z,17.00
2018-05-25T08:34:42.155Z,17.60
2018-05-25T08:37:09.669Z,16.67
2018-05-25T08:39:37.214Z,19.60
2018-05-25T08:42:04.745Z,17.57
2018-05-25T08:44:33.057Z,17.37
2018-05-25T08:47:00.574Z,18.37
2018-05-25T08:49:28.899Z,17.20
2018-05-25T08:51:56.419Z,18.47
2018-05-25T08:54:24.723Z,17.23
2018-05-25T08:56:52.247Z,17.27
2018-05-25T08:59:20.550Z,17.90
2018-05-25T09:01:48.065Z,17.70
2018-05-25T09:04:16.371Z,16.63
2018-05-25T09:06:43.892Z,16.23
2018-05-25T09:09:12.197Z,17.63
2018-05-25T09:11:39.729Z,18.40
2018-05-25T09:14:08.030Z,18.40
2018-05-25T09:16:35.551Z,15.70
2018-05-25T09:19:03.108Z,15.10
2018-05-25T09:21:30.622Z,15.93
2018-05-25T09:23:58.159Z,14.57
2018-05-25T09:26:25.724Z,14.27
2018-05-25T09:28:53.262Z,16.50
2018-05-25T09:31:20.789Z,15.17
2018-05-25T09:33:48.326Z,14.50
2018-05-25T09:36:15.877Z,13.17
2018-05-25T09:38:43.429Z,14.90
2018-05-25T09:41:10.944Z,13.67
2018-05-25T09:43:38.482Z,12.17
2018-05-25T09:46:06.764Z,13.37
2018-05-25T09:48:35.067Z,13.47
2018-05-25T09:51:02.581Z,13.07
2018-05-25T09:53:30.906Z,12.33
2018-05-25T09:55:58.421Z,13.70
2018-05-25T09:58:26.726Z,13.57
2018-05-25T10:00:54.252Z,12.03
2018-05-25T10:03:22.549Z,13.20
2018-05-25T10:05:50.128Z,12.97
2018-05-25T10:08:17.682Z,13.43
2018-05-25T10:10:45.195Z,12.80
2018-05-25T10:13:13.502Z,12.73
2018-05-25T10:15:41.018Z,11.60
2018-05-25T10:18:09.322Z,11.40
2018-05-25T10:20:36.837Z,11.57
2018-05-25T10:23:04.358Z,11.70
2018-05-25T10:25:31.893Z,13.00
2018-05-25T10:27:59.405Z,11.13
2018-05-25T10:30:26.941Z,11.30
2018-05-25T10:32:54.446Z,10.80
2018-05-25T10:35:21.987Z,10.67
2018-05-25T10:37:50.269Z,10.80
2018-05-25T10:40:17.814Z,12.00
2018-05-25T10:42:46.098Z,10.10
2018-05-25T10:45:14.394Z,9.70
2018-05-25T10:47:41.910Z,9.80
2018-05-25T10:50:09.514Z,9.83
2018-05-25T10:52:37.022Z,10.00
2018-05-25T10:55:04.569Z,11.37
2018-05-25T10:57:32.082Z,9.33
2018-05-25T10:59:59.615Z,9.90
2018-05-25T11:02:27.909Z,10.57
2018-05-25T11:04:55.447Z,10.60
2018-05-25T11:07:22.964Z,9.17
2018-05-25T11:09:50.497Z,9.00
2018-05-25T11:12:18.016Z,10.47
2018-05-25T11:14:45.546Z,9.00
2018-05-25T11:17:13.118Z,8.00
2018-05-25T11:19:41.417Z,8.47
2018-05-25T11:22:08.928Z,8.80
2018-05-25T11:24:36.490Z,9.83
2018-05-25T11:27:04.006Z,8.60
2018-05-25T11:29:31.547Z,9.20
2018-05-25T11:31:59.054Z,9.63
2018-05-25T11:34:26.593Z,9.53
2018-05-25T11:36:54.102Z,8.50
2018-05-25T11:39:21.671Z,15.00
2018-05-25T11:41:49.931Z,8.67
2018-05-25T11:44:17.462Z,7.50
2018-05-25T11:46:44.975Z,9.53
2018-05-25T11:49:12.502Z,9.33
2018-05-25T11:51:40.018Z,10.10
2018-05-25T11:54:07.549Z,8.70
2018-05-25T11:56:35.066Z,10.07
2018-05-25T11:59:02.602Z,31.60
2018-05-25T12:01:30.875Z,8.33
2018-05-25T12:03:59.189Z,86.93
2018-05-25T12:06:26.711Z,128.63
2018-05-25T12:08:55.015Z,76.67
2018-05-25T12:11:22.530Z,7.53
2018-05-25T12:13:50.074Z,5.50
2018-05-25T12:16:17.581Z,4.93
2018-05-25T12:18:45.132Z,6.30
2018-05-25T12:21:12.658Z,27.30
2018-05-25T12:23:40.186Z,5.53
2018-05-25T12:26:07.701Z,6.10
2018-05-25T12:28:35.294Z,6.40
2018-05-25T12:31:02.808Z,6.80
2018-05-25T12:33:30.320Z,7.10
2018-05-25T12:35:57.846Z,8.50
2018-05-25T12:38:25.367Z,15.60
2018-05-25T12:40:52.923Z,8.17
2018-05-25T12:43:21.199Z,8.50
2018-05-25T12:45:48.743Z,15.40
2018-05-25T12:48:16.261Z,8.67
2018-05-25T12:50:43.797Z,8.77
2018-05-25T12:53:11.372Z,35.30
2018-05-25T12:55:38.911Z,11.70
2018-05-25T12:58:06.427Z,8.73
2018-05-25T13:00:34.721Z,8.70
2018-05-25T13:03:02.233Z,18.50
2018-05-25T13:05:29.767Z,7.90
2018-05-25T13:07:57.282Z,8.17
2018-05-25T13:10:25.595Z,10.87
2018-05-25T13:12:53.115Z,10.60
2018-05-25T13:15:20.658Z,7.60
2018-05-25T13:17:48.935Z,7.47
2018-05-25T13:20:17.226Z,6.83
2018-05-25T13:22:44.738Z,6.50
2018-05-25T13:25:12.271Z,6.10
2018-05-25T13:27:39.787Z,6.20
2018-05-25T13:30:07.373Z,7.03
2018-05-25T13:32:34.878Z,6.37
2018-05-25T13:35:02.402Z,6.57
2018-05-25T13:37:29.915Z,6.43
2018-05-25T13:39:57.446Z,6.43
2018-05-25T13:42:24.954Z,7.37
2018-05-25T13:44:52.491Z,10.27
2018-05-25T13:47:19.998Z,7.03
2018-05-25T13:49:47.535Z,10.87
2018-05-25T13:52:15.045Z,5.90
2018-05-25T13:54:43.343Z,6.53
2018-05-25T13:57:10.854Z,6.00
2018-05-25T13:59:38.387Z,6.57
2018-05-25T14:02:05.944Z,6.53
2018-05-25T14:04:33.486Z,5.13
2018-05-25T14:07:01.757Z,7.50
2018-05-25T14:09:29.306Z,7.43
2018-05-25T14:11:56.869Z,5.90
2018-05-25T14:14:24.463Z,5.93
2018-05-25T14:16:52.771Z,5.33
2018-05-25T14:19:20.365Z,6.73
2018-05-25T14:21:47.878Z,5.10
2018-05-25T14:24:15.415Z,5.00
2018-05-25T14:26:43.690Z,5.87
2018-05-25T14:29:11.221Z,5.70
2018-05-25T14:31:39.541Z,5.47
2018-05-25T14:34:07.051Z,5.50
2018-05-25T14:36:34.584Z,5.50
2018-05-25T14:39:02.107Z,10.30
2018-05-25T14:41:30.401Z,5.23
2018-05-25T14:43:57.978Z,7.20
2018-05-25T14:46:25.506Z,6.00
2018-05-25T14:48:53.017Z,4.83
2018-05-25T14:51:20.553Z,4.87
2018-05-25T14:53:48.062Z,5.20
2018-05-25T14:56:16.354Z,4.90
2018-05-25T14:58:43.858Z,5.87
2018-05-25T15:01:11.421Z,40.50
2018-05-25T15:03:38.927Z,6.10
2018-05-25T15:06:06.466Z,10.37
2018-05-25T15:08:33.975Z,7.17
2018-05-25T15:11:01.522Z,6.00
2018-05-25T15:13:29.030Z,4.67
2018-05-25T15:15:57.326Z,5.10
2018-05-25T15:18:24.845Z,4.63
2018-05-25T15:20:53.146Z,4.67
2018-05-25T15:23:20.663Z,5.10
2018-05-25T15:25:48.202Z,5.23
2018-05-25T15:28:15.725Z,4.90
2018-05-25T15:30:43.258Z,4.83
2018-05-25T15:33:11.539Z,4.97
2018-05-25T15:35:40.070Z,4.20
2018-05-25T15:38:07.597Z,4.30
2018-05-25T15:40:35.132Z,3.67
2018-05-25T15:43:02.648Z,4.10
2018-05-25T15:45:30.179Z,3.73
2018-05-25T15:47:57.687Z,4.00
2018-05-25T15:50:25.999Z,3.93
2018-05-25T15:52:53.505Z,4.33
2018-05-25T15:55:21.029Z,4.00
2018-05-25T15:57:48.547Z,3.80
2018-05-25T16:00:16.105Z,3.93
2018-05-25T16:02:43.690Z,4.00
2018-05-25T16:05:11.289Z,3.70
2018-05-25T16:07:39.566Z,3.53
2018-05-25T16:10:07.917Z,3.63
2018-05-25T16:12:35.425Z,3.10
2018-05-25T16:15:02.959Z,3.43
2018-05-25T16:17:31.270Z,3.83
2018-05-25T16:19:58.806Z,3.20
2018-05-25T16:22:26.319Z,3.07
2018-05-25T16:24:53.849Z,3.20
2018-05-25T16:27:21.359Z,3.37
2018-05-25T16:29:49.658Z,3.70
2018-05-25T16:32:17.246Z,3.20
2018-05-25T16:34:44.781Z,3.60
2018-05-25T16:37:12.285Z,3.27
2018-05-25T16:39:39.824Z,3.80
2018-05-25T16:42:07.354Z,3.90
2018-05-25T16:44:34.861Z,3.30
2018-05-25T16:47:03.161Z,3.43
2018-05-25T16:49:30.684Z,3.90
2018-05-25T16:51:58.215Z,3.90
2018-05-25T16:54:25.744Z,4.00
2018-05-25T16:56:53.277Z,4.10
2018-05-25T16:59:21.571Z,3.37
2018-05-25T17:01:49.144Z,4.33
2018-05-25T17:04:16.634Z,3.67
2018-05-25T17:06:44.166Z,3.57
2018-05-25T17:09:12.627Z,4.00
2018-05-25T17:11:40.159Z,4.47
2018-05-25T17:14:07.690Z,4.10
2018-05-25T17:16:35.229Z,4.10
2018-05-25T17:19:02.741Z,4.70
2018-05-25T17:21:30.278Z,4.63
2018-05-25T17:23:58.553Z,4.70
2018-05-25T17:26:26.842Z,5.60
2018-05-25T17:28:54.349Z,4.73
2018-05-25T17:31:21.902Z,5.23
2018-05-25T17:33:49.434Z,4.67
2018-05-25T17:36:16.966Z,4.67
2018-05-25T17:38:44.474Z,4.47
2018-05-25T17:41:12.020Z,4.03
2018-05-25T17:43:39.534Z,4.57
2018-05-25T17:46:07.071Z,4.97
2018-05-25T17:48:35.346Z,4.57
2018-05-25T17:51:03.648Z,4.80
2018-05-25T17:53:31.159Z,4.77
2018-05-25T17:55:58.686Z,4.90
2018-05-25T17:58:26.197Z,4.33
2018-05-25T18:00:53.731Z,4.63
2018-05-25T18:03:21.238Z,4.93
2018-05-25T18:05:48.774Z,4.47
2018-05-25T18:08:16.282Z,4.20
2018-05-25T18:10:43.820Z,5.30
2018-05-25T18:13:11.331Z,4.80
2018-05-25T18:15:39.636Z,4.80
2018-05-25T18:18:07.166Z,5.27
2018-05-25T18:20:34.702Z,4.83
2018-05-25T18:23:02.988Z,4.90
2018-05-25T18:25:31.291Z,4.70
2018-05-25T18:27:58.794Z,4.83
2018-05-25T18:30:26.341Z,4.30
2018-05-25T18:32:53.854Z,4.43
2018-05-25T18:35:21.403Z,4.77
2018-05-25T18:37:48.910Z,4.40
2018-05-25T18:40:16.442Z,3.80
2018-05-25T18:42:43.967Z,3.80
2018-05-25T18:45:11.503Z,3.50
2018-05-25T18:47:39.802Z,3.17
2018-05-25T18:50:07.314Z,3.83
2018-05-25T18:52:34.851Z,3.77
2018-05-25T18:55:02.363Z,3.90
2018-05-25T18:57:29.885Z,3.73
2018-05-25T18:59:57.398Z,3.40
2018-05-25T19:02:24.928Z,3.70
2018-05-25T19:04:52.454Z,3.67
2018-05-25T19:07:19.983Z,3.13
2018-05-25T19:09:47.491Z,3.50
2018-05-25T19:12:15.791Z,3.30
2018-05-25T19:14:43.307Z,3.13
2018-05-25T19:17:11.611Z,3.30
2018-05-25T19:19:39.128Z,3.50
2018-05-25T19:22:06.658Z,3.20
2018-05-25T19:24:34.930Z,3.40
2018-05-25T19:27:02.474Z,3.40
2018-05-25T19:29:29.987Z,3.50
2018-05-25T19:31:58.283Z,6.50
2018-05-25T19:34:25.794Z,5.23
2018-05-25T19:36:53.330Z,4.73
2018-05-25T19:39:20.840Z,4.43
2018-05-25T19:41:48.366Z,4.40
2018-05-25T19:44:15.876Z,3.80
2018-05-25T19:46:43.410Z,3.87
2018-05-25T19:49:10.935Z,3.93
2018-05-25T19:51:38.472Z,4.77
2018-05-25T19:54:06.747Z,4.57
2018-05-25T19:56:35.046Z,4.27
2018-05-25T19:59:02.552Z,4.60
2018-05-25T20:01:30.111Z,11.33
2018-05-25T20:03:57.670Z,12.90
2018-05-25T20:06:25.191Z,10.87
2018-05-25T20:08:53.497Z,9.77
2018-05-25T20:11:21.064Z,8.40
2018-05-25T20:13:48.577Z,5.80
2018-05-25T20:16:16.896Z,6.30
2018-05-25T20:18:44.402Z,5.73
2018-05-25T20:21:12.702Z,4.53
2018-05-25T20:23:40.215Z,5.00
2018-05-25T20:26:07.746Z,5.27
2018-05-25T20:28:35.325Z,4.53
2018-05-25T20:31:02.820Z,4.97
2018-05-25T20:33:30.338Z,4.40
2018-05-25T20:35:57.866Z,5.20
2018-05-25T20:38:25.369Z,4.90
2018-05-25T20:40:53.692Z,4.50
2018-05-25T20:43:21.200Z,4.60
2018-05-25T20:45:49.503Z,4.67
2018-05-25T20:48:17.023Z,4.50
2018-05-25T20:50:45.852Z,4.97
2018-05-25T20:53:15.442Z,5.87
2018-05-25T20:55:44.178Z,5.90
2018-05-25T20:58:12.365Z,6.03
2018-05-25T21:00:40.182Z,5.40
2018-05-25T21:03:08.381Z,4.80
2018-05-25T21:05:37.291Z,5.90
2018-05-25T21:08:05.328Z,4.80
2018-05-25T21:10:33.398Z,5.40
2018-05-25T21:13:01.621Z,5.83
2018-05-25T21:15:29.599Z,5.50
2018-05-25T21:17:59.018Z,5.60
2018-05-25T21:20:27.087Z,5.23
2018-05-25T21:22:54.666Z,5.90
2018-05-25T21:25:22.178Z,5.53
2018-05-25T21:27:49.712Z,5.20
2018-05-25T21:30:17.982Z,5.60
2018-05-25T21:32:46.291Z,5.17
2018-05-25T21:35:13.802Z,5.27
2018-05-25T21:37:41.339Z,5.70
2018-05-25T21:40:08.850Z,5.03
2018-05-25T21:42:36.391Z,4.77
2018-05-25T21:45:04.673Z,5.10
2018-05-25T21:47:32.206Z,5.57
2018-05-25T21:49:59.715Z,5.90
2018-05-25T21:52:27.250Z,5.07
2018-05-25T21:54:54.766Z,5.03
2018-05-25T21:57:22.303Z,5.37
2018-05-25T21:59:49.813Z,5.10
2018-05-25T22:02:17.350Z,6.33
2018-05-25T22:04:45.635Z,5.73
2018-05-25T22:07:13.931Z,6.50
2018-05-25T22:09:41.440Z,6.00
2018-05-25T22:12:08.975Z,5.80
2018-05-25T22:14:36.485Z,5.90
2018-05-25T22:17:04.023Z,6.60
2018-05-25T22:19:32.308Z,5.37
2018-05-25T22:22:00.608Z,6.10
2018-05-25T22:24:28.114Z,5.80
2018-05-25T22:26:55.659Z,5.60
2018-05-25T22:29:23.162Z,5.70
2018-05-25T22:31:50.690Z,6.00
2018-05-25T22:34:18.195Z,5.23
2018-05-25T22:36:45.731Z,5.40
2018-05-25T22:39:13.243Z,5.90
2018-05-25T22:41:40.771Z,6.00
2018-05-25T22:44:20.123Z,6.60
2018-05-25T22:46:59.563Z,6.53
2018-05-25T22:49:38.849Z,5.70
2018-05-25T22:55:14.920Z,6.53
2018-05-25T22:57:42.465Z,5.47
2018-05-25T23:00:09.982Z,6.20
2018-05-25T23:02:37.505Z,6.30
2018-05-25T23:05:05.022Z,6.07
2018-05-25T23:07:33.319Z,6.00
2018-05-25T23:10:00.829Z,6.27
2018-05-25T23:12:28.357Z,6.10
2018-05-25T23:14:55.863Z,6.47
2018-05-25T23:17:24.173Z,6.57
2018-05-25T23:19:51.681Z,6.80
2018-05-25T23:22:19.980Z,5.90
2018-05-25T23:24:47.486Z,6.47
2018-05-25T23:27:16.548Z,7.10
2018-05-25T23:29:44.063Z,7.33
2018-05-25T23:32:12.370Z,7.00
2018-05-25T23:34:39.957Z,6.90
2018-05-25T23:37:07.446Z,7.80
2018-05-25T23:39:34.950Z,7.40
2018-05-25T23:42:02.483Z,8.00
2018-05-25T23:44:29.987Z,7.37
2018-05-25T23:46:57.521Z,7.90
2018-05-25T23:49:25.027Z,7.43
2018-05-25T23:51:53.323Z,6.87
2018-05-25T23:54:20.834Z,7.93
2018-05-25T23:56:48.350Z,7.53
2018-05-25T23:59:15.878Z,7.83
